Time;durP1;ratioP1;P1;durP2;ratioP2;P2;SDS_P1;SDS_P2;PMS_P1;PMS_P2;Temp;Humidity;BMP_temperature;BMP_pressure;BME280_temperature;BME280_humidity;BME280_pressure;Samples;Min_cycle;Max_cycle;Signal;HPM_P1;HPM_P2
2023/10/06 00:00:46;;;;;;;52.17;23.40;;;;;;;;;;5084038;28;20233;-76
2023/10/06 00:03:14;;;;;;;51.53;22.43;;;;;;;;;;5097652;28;20782;-76
2023/10/06 00:05:42;;;;;;;48.97;19.77;;;;;;;;;;5102874;28;20223;-76
2023/10/06 00:08:16;;;;;;;45.10;20.30;;;;;;;;;;5105699;27;20208;-78
2023/10/06 00:10:51;;;;;;;48.13;21.30;;;;;;;;;;5102175;28;20292;-76
2023/10/06 00:13:23;;;;;;;59.93;26.53;;;;;;;;;;5097046;28;20817;-79
2023/10/06 00:15:51;;;;;;;62.70;25.77;;;;;;;;;;5106881;28;20220;-78
2023/10/06 00:18:19;;;;;;;50.40;21.70;;;;;;;;;;5110166;28;20582;-79
2023/10/06 00:20:51;;;;;;;38.37;17.17;;;;;;;;;;5084540;28;20208;-78
2023/10/06 00:23:22;;;;;;;28.17;14.13;;;;;;;;;;5105755;28;20605;-77
2023/10/06 00:25:51;;;;;;;30.03;13.60;;;;;;;;;;5080111;28;21466;-78
2023/10/06 00:28:25;;;;;;;24.70;12.83;;;;;;;;;;5101515;28;20211;-79
2023/10/06 00:30:56;;;;;;;33.10;16.33;;;;;;;;;;5101387;27;20204;-78
2023/10/06 00:33:26;;;;;;;28.53;13.47;;;;;;;;;;5101050;28;20206;-78
2023/10/06 00:35:53;;;;;;;24.97;12.80;;;;;;;;;;5095790;28;20610;-79
2023/10/06 00:38:21;;;;;;;22.47;12.07;;;;;;;;;;5101366;28;20212;-79
2023/10/06 00:40:51;;;;;;;23.97;11.10;;;;;;;;;;5101536;28;20706;-80
2023/10/06 00:43:29;;;;;;;33.33;15.90;;;;;;;;;;5106526;27;20277;-79
2023/10/06 00:46:00;;;;;;;34.20;16.00;;;;;;;;;;5094154;28;20266;-79
2023/10/06 00:48:29;;;;;;;23.70;12.80;;;;;;;;;;5103888;28;20207;-79
2023/10/06 00:50:58;;;;;;;16.23;9.63;;;;;;;;;;5105363;28;20258;-78
2023/10/06 00:53:33;;;;;;;17.17;10.10;;;;;;;;;;5104696;28;20298;-79
2023/10/06 00:56:10;;;;;;;17.83;9.87;;;;;;;;;;5098217;28;20228;-78
2023/10/06 00:58:41;;;;;;;14.90;6.60;;;;;;;;;;5105677;27;20809;-79
2023/10/06 01:01:12;;;;;;;10.17;6.00;;;;;;;;;;5101416;28;20305;-78
2023/10/06 01:03:44;;;;;;;13.23;6.90;;;;;;;;;;5084135;28;20220;-78
2023/10/06 01:06:14;;;;;;;12.43;7.17;;;;;;;;;;5101740;27;20215;-79
2023/10/06 01:08:52;;;;;;;16.87;7.53;;;;;;;;;;5109123;27;20222;-80
2023/10/06 01:11:26;;;;;;;16.67;8.40;;;;;;;;;;5100559;27;20197;-78
2023/10/06 01:13:57;;;;;;;12.90;6.90;;;;;;;;;;5104671;27;20208;-77
2023/10/06 01:16:38;;;;;;;14.70;9.47;;;;;;;;;;5100628;28;20228;-76
2023/10/06 01:19:17;;;;;;;18.43;8.67;;;;;;;;;;5074633;28;20578;-76
2023/10/06 01:21:46;;;;;;;14.90;8.47;;;;;;;;;;5079764;28;21579;-77
2023/10/06 01:24:26;;;;;;;16.57;10.10;;;;;;;;;;5094265;27;20579;-75
2023/10/06 01:26:54;;;;;;;14.00;8.90;;;;;;;;;;5095978;28;20308;-76
2023/10/06 01:29:29;;;;;;;18.37;10.17;;;;;;;;;;5106022;28;20269;-76
2023/10/06 01:31:57;;;;;;;21.20;10.90;;;;;;;;;;5096626;28;20204;-76
2023/10/06 01:34:24;;;;;;;24.17;13.20;;;;;;;;;;5099803;28;20222;-76
2023/10/06 01:36:52;;;;;;;27.03;13.23;;;;;;;;;;5096962;28;20219;-75
2023/10/06 01:39:22;;;;;;;27.57;13.87;;;;;;;;;;5103789;28;20269;-74
2023/10/06 01:41:50;;;;;;;26.83;14.83;;;;;;;;;;5092993;28;20220;-75
2023/10/06 01:44:17;;;;;;;20.73;13.33;;;;;;;;;;5092679;28;20192;-74
2023/10/06 01:46:53;;;;;;;26.30;13.37;;;;;;;;;;5094670;28;20224;-76
2023/10/06 01:49:21;;;;;;;21.87;12.50;;;;;;;;;;5099448;28;20195;-75
2023/10/06 01:51:50;;;;;;;20.20;12.17;;;;;;;;;;5099597;28;20204;-75
2023/10/06 01:54:34;;;;;;;21.67;12.03;;;;;;;;;;5099342;28;20692;-76
2023/10/06 01:57:04;;;;;;;19.50;11.33;;;;;;;;;;5078258;28;20212;-76
2023/10/06 01:59:31;;;;;;;20.97;11.63;;;;;;;;;;5093783;28;20208;-74
2023/10/06 02:02:02;;;;;;;20.60;11.37;;;;;;;;;;5098647;28;20220;-75
2023/10/06 02:04:39;;;;;;;15.73;10.40;;;;;;;;;;5096745;28;20193;-75
2023/10/06 02:07:10;;;;;;;18.13;11.13;;;;;;;;;;5099764;28;20220;-75
2023/10/06 02:09:38;;;;;;;16.50;10.53;;;;;;;;;;5104817;28;20348;-73
2023/10/06 02:12:06;;;;;;;19.97;10.80;;;;;;;;;;5107406;28;20201;-76
2023/10/06 02:14:33;;;;;;;16.70;11.50;;;;;;;;;;5094115;28;20201;-76
2023/10/06 02:17:11;;;;;;;16.80;10.57;;;;;;;;;;5070635;28;20221;-74
2023/10/06 02:19:41;;;;;;;15.67;9.73;;;;;;;;;;5098283;28;20201;-74
2023/10/06 02:22:10;;;;;;;17.37;9.53;;;;;;;;;;5095540;28;20231;-74
2023/10/06 02:24:39;;;;;;;15.30;10.10;;;;;;;;;;5082470;28;20281;-74
2023/10/06 02:27:06;;;;;;;17.97;11.23;;;;;;;;;;5098557;28;20700;-73
2023/10/06 02:29:33;;;;;;;19.43;13.63;;;;;;;;;;5099231;28;20204;-74
2023/10/06 02:32:01;;;;;;;18.10;13.83;;;;;;;;;;5081417;28;20264;-76
2023/10/06 02:34:32;;;;;;;14.57;7.33;;;;;;;;;;5096918;27;20223;-76
2023/10/06 02:37:04;;;;;;;12.27;7.57;;;;;;;;;;5098459;28;20229;-76
2023/10/06 02:39:34;;;;;;;8.63;7.03;;;;;;;;;;5095664;28;20657;-74
2023/10/06 02:42:07;;;;;;;14.67;9.93;;;;;;;;;;5098291;28;20200;-76
2023/10/06 02:44:38;;;;;;;15.63;10.17;;;;;;;;;;5068497;28;20215;-75
2023/10/06 02:47:09;;;;;;;17.87;9.43;;;;;;;;;;5102496;28;20220;-74
2023/10/06 02:49:40;;;;;;;17.97;10.57;;;;;;;;;;5103734;28;20197;-74
2023/10/06 02:52:21;;;;;;;13.90;9.53;;;;;;;;;;5095072;28;20299;-74
2023/10/06 02:57:36;;;;;;;12.30;8.67;;;;;;;;;;5102644;28;20207;-75
2023/10/06 03:03:03;;;;;;;15.47;10.57;;;;;;;;;;5100520;28;20235;-75
2023/10/06 03:05:38;;;;;;;15.87;8.97;;;;;;;;;;5073507;28;20242;-75
2023/10/06 03:08:08;;;;;;;12.83;9.97;;;;;;;;;;5089484;28;20193;-76
2023/10/06 03:10:43;;;;;;;13.47;9.03;;;;;;;;;;5092991;27;20219;-74
2023/10/06 03:13:15;;;;;;;12.40;7.20;;;;;;;;;;5106275;28;20621;-76
2023/10/06 03:15:46;;;;;;;10.70;7.63;;;;;;;;;;5097098;28;20224;-77
2023/10/06 03:18:15;;;;;;;10.10;7.43;;;;;;;;;;5099571;28;20244;-77
2023/10/06 03:20:47;;;;;;;10.13;7.27;;;;;;;;;;5114519;28;20462;-76
2023/10/06 03:23:29;;;;;;;11.07;8.23;;;;;;;;;;5115138;28;20624;-79
2023/10/06 03:25:57;;;;;;;12.87;9.10;;;;;;;;;;5114762;28;20220;-76
2023/10/06 03:28:32;;;;;;;12.67;9.73;;;;;;;;;;5114473;28;20196;-76
2023/10/06 03:31:21;;;;;;;15.83;10.70;;;;;;;;;;5125435;27;20195;-76
2023/10/06 03:33:49;;;;;;;15.10;10.33;;;;;;;;;;5135762;27;20234;-78
2023/10/06 03:36:25;;;;;;;12.57;9.03;;;;;;;;;;5131690;27;20687;-78
2023/10/06 03:39:06;;;;;;;9.57;8.53;;;;;;;;;;5116323;27;20203;-77
2023/10/06 03:41:37;;;;;;;12.33;10.13;;;;;;;;;;5124545;27;20733;-77
2023/10/06 03:44:04;;;;;;;18.90;12.33;;;;;;;;;;5114168;28;20594;-77
2023/10/06 03:46:38;;;;;;;15.43;11.00;;;;;;;;;;5114790;28;20228;-78
2023/10/06 03:49:09;;;;;;;16.63;11.47;;;;;;;;;;5114468;28;20659;-76
2023/10/06 03:51:38;;;;;;;13.73;11.20;;;;;;;;;;5113852;28;20222;-77
2023/10/06 03:54:07;;;;;;;18.60;11.50;;;;;;;;;;5127139;27;20196;-78
2023/10/06 03:56:35;;;;;;;17.50;12.67;;;;;;;;;;5134468;27;20695;-77
2023/10/06 03:59:12;;;;;;;15.37;11.67;;;;;;;;;;5135290;27;20203;-79
2023/10/06 04:01:44;;;;;;;16.60;10.90;;;;;;;;;;5116199;27;20188;-76
2023/10/06 04:04:14;;;;;;;13.73;11.27;;;;;;;;;;5134983;27;20237;-76
2023/10/06 04:06:43;;;;;;;14.33;11.10;;;;;;;;;;5127224;27;20299;-78
2023/10/06 04:09:11;;;;;;;13.07;9.53;;;;;;;;;;5124511;27;20573;-79
2023/10/06 04:11:38;;;;;;;13.10;9.77;;;;;;;;;;5132543;27;20199;-78
2023/10/06 04:14:06;;;;;;;11.73;9.00;;;;;;;;;;5115096;27;20204;-77
2023/10/06 04:16:43;;;;;;;13.40;9.87;;;;;;;;;;5079047;28;20225;-77
2023/10/06 04:19:10;;;;;;;14.97;9.67;;;;;;;;;;5112640;28;20271;-78
2023/10/06 04:21:37;;;;;;;14.73;10.67;;;;;;;;;;5093304;28;20200;-77
2023/10/06 04:24:05;;;;;;;13.57;9.47;;;;;;;;;;5102025;27;20696;-76
2023/10/06 04:26:32;;;;;;;14.40;9.87;;;;;;;;;;5134080;27;20252;-77
2023/10/06 04:29:01;;;;;;;15.53;10.23;;;;;;;;;;5103977;28;20207;-78
2023/10/06 04:31:28;;;;;;;14.07;9.93;;;;;;;;;;5111733;28;20243;-79
2023/10/06 04:33:55;;;;;;;14.83;10.47;;;;;;;;;;5112506;28;20192;-78
2023/10/06 04:36:27;;;;;;;15.67;10.43;;;;;;;;;;5114033;28;20726;-78
2023/10/06 04:38:56;;;;;;;14.83;10.43;;;;;;;;;;5113346;28;20208;-79
2023/10/06 04:41:24;;;;;;;14.97;10.00;;;;;;;;;;5113508;28;20220;-78
2023/10/06 04:43:52;;;;;;;15.40;10.03;;;;;;;;;;5113738;28;20228;-78
2023/10/06 04:46:19;;;;;;;15.43;10.27;;;;;;;;;;5113327;28;20216;-78
2023/10/06 04:48:48;;;;;;;12.90;9.00;;;;;;;;;;5095614;28;20200;-80
2023/10/06 04:51:16;;;;;;;16.37;10.43;;;;;;;;;;5096189;28;20220;-77
2023/10/06 04:53:45;;;;;;;15.50;10.33;;;;;;;;;;5113315;28;20208;-79
2023/10/06 04:56:14;;;;;;;15.00;10.20;;;;;;;;;;5113543;28;20289;-78
2023/10/06 04:58:42;;;;;;;14.60;10.57;;;;;;;;;;5113626;28;20218;-78
2023/10/06 05:01:11;;;;;;;17.70;10.33;;;;;;;;;;5118777;27;20199;-78
2023/10/06 05:03:45;;;;;;;19.07;10.93;;;;;;;;;;5133876;27;20208;-78
2023/10/06 05:06:16;;;;;;;15.37;10.97;;;;;;;;;;5122477;27;20215;-77
2023/10/06 05:08:47;;;;;;;15.70;10.33;;;;;;;;;;5103010;28;20196;-75
2023/10/06 05:11:16;;;;;;;16.43;11.83;;;;;;;;;;5080655;28;20261;-76
2023/10/06 05:13:47;;;;;;;17.93;11.60;;;;;;;;;;5067753;28;20587;-75
2023/10/06 05:16:19;;;;;;;18.10;11.17;;;;;;;;;;5086990;28;20251;-77
2023/10/06 05:18:47;;;;;;;19.93;12.23;;;;;;;;;;5084137;28;20526;-76
2023/10/06 05:21:15;;;;;;;18.87;11.90;;;;;;;;;;5097137;28;21337;-75
2023/10/06 05:23:45;;;;;;;18.73;11.83;;;;;;;;;;5099000;28;20236;-76
2023/10/06 05:26:14;;;;;;;16.07;10.97;;;;;;;;;;5101064;28;20251;-77
2023/10/06 05:28:42;;;;;;;15.53;11.10;;;;;;;;;;5093450;28;20850;-76
2023/10/06 05:31:11;;;;;;;18.10;11.50;;;;;;;;;;5095659;28;20227;-76
2023/10/06 05:33:42;;;;;;;17.13;11.47;;;;;;;;;;5088739;28;20207;-76
2023/10/06 05:36:10;;;;;;;17.13;11.60;;;;;;;;;;5096947;28;20262;-76
2023/10/06 05:38:38;;;;;;;16.43;11.50;;;;;;;;;;5096035;28;20211;-76
2023/10/06 05:41:11;;;;;;;15.70;11.17;;;;;;;;;;5081442;28;20211;-77
2023/10/06 05:43:41;;;;;;;16.67;11.77;;;;;;;;;;5102386;28;20691;-76
2023/10/06 05:46:09;;;;;;;17.73;11.70;;;;;;;;;;5096649;28;20247;-76
2023/10/06 05:48:38;;;;;;;15.80;11.33;;;;;;;;;;5101043;28;20192;-76
2023/10/06 05:51:08;;;;;;;15.30;10.63;;;;;;;;;;5096282;28;20204;-76
2023/10/06 05:53:38;;;;;;;18.50;10.50;;;;;;;;;;5102411;28;20204;-76
2023/10/06 05:56:07;;;;;;;14.07;10.27;;;;;;;;;;5094644;28;20734;-75
2023/10/06 05:58:37;;;;;;;15.97;9.93;;;;;;;;;;5088780;28;20208;-77
2023/10/06 06:01:06;;;;;;;12.93;9.27;;;;;;;;;;5095560;28;20211;-77
2023/10/06 06:03:35;;;;;;;12.87;9.83;;;;;;;;;;5097976;28;20243;-77
2023/10/06 06:06:09;;;;;;;11.10;8.90;;;;;;;;;;5093545;28;20290;-78
2023/10/06 06:08:39;;;;;;;11.00;8.40;;;;;;;;;;5095577;28;20208;-75
2023/10/06 06:11:06;;;;;;;11.40;9.13;;;;;;;;;;5096686;27;20278;-76
2023/10/06 06:13:37;;;;;;;11.40;9.07;;;;;;;;;;5097682;28;20239;-76
2023/10/06 06:16:05;;;;;;;9.97;8.43;;;;;;;;;;5092434;28;20228;-77
2023/10/06 06:18:33;;;;;;;10.43;9.03;;;;;;;;;;5098778;28;20196;-78
2023/10/06 06:21:02;;;;;;;10.90;9.30;;;;;;;;;;5073239;28;20607;-78
2023/10/06 06:23:35;;;;;;;12.80;10.07;;;;;;;;;;5097048;27;20221;-77
2023/10/06 06:26:02;;;;;;;13.53;10.30;;;;;;;;;;5102233;28;20228;-77
2023/10/06 06:28:29;;;;;;;12.07;9.27;;;;;;;;;;5094142;27;20234;-78
2023/10/06 06:31:03;;;;;;;14.30;11.00;;;;;;;;;;5096390;28;20204;-77
2023/10/06 06:33:32;;;;;;;18.03;13.73;;;;;;;;;;5090574;27;20229;-77
2023/10/06 06:36:00;;;;;;;15.67;11.50;;;;;;;;;;5102336;28;20224;-77
2023/10/06 06:38:28;;;;;;;18.03;10.90;;;;;;;;;;5097242;27;20199;-76
2023/10/06 06:40:59;;;;;;;16.53;10.67;;;;;;;;;;5095583;28;20212;-76
2023/10/06 06:43:27;;;;;;;15.70;11.70;;;;;;;;;;5092420;28;20644;-77
2023/10/06 06:45:55;;;;;;;17.97;12.60;;;;;;;;;;5092011;28;20224;-77
2023/10/06 06:48:22;;;;;;;14.77;11.07;;;;;;;;;;5096103;28;20200;-77
2023/10/06 06:50:50;;;;;;;17.80;11.43;;;;;;;;;;5078912;28;20526;-77
2023/10/06 06:53:18;;;;;;;17.13;11.20;;;;;;;;;;5075463;28;20204;-76
2023/10/06 06:55:46;;;;;;;14.77;10.70;;;;;;;;;;5071314;28;20986;-77
2023/10/06 06:58:16;;;;;;;16.23;10.33;;;;;;;;;;5092113;28;20205;-77
2023/10/06 07:00:47;;;;;;;15.10;10.80;;;;;;;;;;5077711;28;20209;-77
2023/10/06 07:03:15;;;;;;;16.13;11.37;;;;;;;;;;5074360;28;20289;-78
2023/10/06 07:05:43;;;;;;;22.47;11.70;;;;;;;;;;5088367;28;20590;-79
2023/10/06 07:08:11;;;;;;;17.70;12.00;;;;;;;;;;5085413;28;20226;-77
2023/10/06 07:10:46;;;;;;;17.47;11.03;;;;;;;;;;5088182;28;20207;-77
2023/10/06 07:13:14;;;;;;;14.47;10.20;;;;;;;;;;5107836;28;20199;-79
2023/10/06 07:15:41;;;;;;;15.03;11.10;;;;;;;;;;5105983;28;20225;-79
2023/10/06 07:18:12;;;;;;;15.13;10.87;;;;;;;;;;5112823;28;20674;-78
2023/10/06 07:20:39;;;;;;;15.10;10.37;;;;;;;;;;5115661;28;20216;-78
2023/10/06 07:23:06;;;;;;;16.57;10.10;;;;;;;;;;5093964;28;20200;-77
2023/10/06 07:25:34;;;;;;;19.07;11.20;;;;;;;;;;5110012;28;20600;-79
2023/10/06 07:28:02;;;;;;;18.83;12.03;;;;;;;;;;5110776;28;20296;-78
2023/10/06 07:30:34;;;;;;;19.17;12.03;;;;;;;;;;5095790;28;20211;-76
2023/10/06 07:33:08;;;;;;;21.70;13.97;;;;;;;;;;5112497;28;20197;-76
2023/10/06 07:35:43;;;;;;;25.50;16.00;;;;;;;;;;5114377;28;20220;-77
2023/10/06 07:38:13;;;;;;;24.13;15.53;;;;;;;;;;5113590;28;20200;-77
2023/10/06 07:40:44;;;;;;;24.87;16.03;;;;;;;;;;5112045;28;20208;-77
2023/10/06 07:43:12;;;;;;;23.37;16.17;;;;;;;;;;5115052;28;20298;-78
2023/10/06 07:45:41;;;;;;;25.47;17.07;;;;;;;;;;5093779;28;20267;-78
2023/10/06 07:48:09;;;;;;;26.77;16.90;;;;;;;;;;5115333;28;20668;-79
2023/10/06 07:50:37;;;;;;;29.27;17.33;;;;;;;;;;5114447;28;20412;-78
2023/10/06 07:53:07;;;;;;;28.03;18.37;;;;;;;;;;5114667;28;20235;-78
2023/10/06 07:55:34;;;;;;;22.27;16.83;;;;;;;;;;5086075;28;20220;-77
2023/10/06 07:58:05;;;;;;;23.83;16.77;;;;;;;;;;5108067;28;20218;-79
2023/10/06 08:00:38;;;;;;;30.10;18.47;;;;;;;;;;5099912;28;20204;-77
2023/10/06 08:03:06;;;;;;;24.43;17.63;;;;;;;;;;5135044;27;20267;-76
2023/10/06 08:05:33;;;;;;;28.57;17.93;;;;;;;;;;5122332;27;20220;-76
2023/10/06 08:08:04;;;;;;;24.67;17.37;;;;;;;;;;5113906;28;20204;-77
2023/10/06 08:10:31;;;;;;;24.50;16.80;;;;;;;;;;5117740;27;20228;-77
2023/10/06 08:13:01;;;;;;;25.27;16.83;;;;;;;;;;5114297;28;20227;-76
2023/10/06 08:15:32;;;;;;;24.63;15.90;;;;;;;;;;5112693;28;20228;-77
2023/10/06 08:18:00;;;;;;;25.83;16.10;;;;;;;;;;5096139;28;20263;-75
2023/10/06 08:20:29;;;;;;;22.23;15.40;;;;;;;;;;5095842;28;20214;-76
2023/10/06 08:22:58;;;;;;;24.10;16.07;;;;;;;;;;5095965;28;20204;-76
2023/10/06 08:25:27;;;;;;;20.10;14.90;;;;;;;;;;5113780;28;20238;-76
2023/10/06 08:27:59;;;;;;;21.53;15.00;;;;;;;;;;5113009;28;20261;-77
2023/10/06 08:30:28;;;;;;;22.43;15.50;;;;;;;;;;5091606;28;20197;-79
2023/10/06 08:32:56;;;;;;;24.93;15.83;;;;;;;;;;5113611;28;20219;-78
2023/10/06 08:35:24;;;;;;;24.00;14.77;;;;;;;;;;5113417;28;20636;-79
2023/10/06 08:37:54;;;;;;;22.47;14.93;;;;;;;;;;5115583;27;20200;-77
2023/10/06 08:40:24;;;;;;;24.83;14.53;;;;;;;;;;5125301;27;20619;-77
2023/10/06 08:42:51;;;;;;;20.93;14.37;;;;;;;;;;5112946;28;20225;-77
2023/10/06 08:45:20;;;;;;;21.53;12.70;;;;;;;;;;5119259;27;20230;-77
2023/10/06 08:47:49;;;;;;;16.90;12.53;;;;;;;;;;5116345;27;20286;-79
2023/10/06 08:50:29;;;;;;;16.17;11.40;;;;;;;;;;5124289;27;20193;-78
2023/10/06 08:52:57;;;;;;;17.43;12.53;;;;;;;;;;5084974;28;20204;-78
2023/10/06 08:55:25;;;;;;;15.97;12.00;;;;;;;;;;5105347;28;20202;-76
2023/10/06 08:57:55;;;;;;;15.60;10.83;;;;;;;;;;5104858;28;20204;-76
2023/10/06 09:00:32;;;;;;;15.03;10.60;;;;;;;;;;5096345;28;20207;-74
2023/10/06 09:03:08;;;;;;;15.20;10.40;;;;;;;;;;5094532;28;20615;-77
2023/10/06 09:05:43;;;;;;;13.85;8.80;;;;;;;;;;5104805;28;20232;-76
2023/10/06 09:08:11;;;;;;;10.07;7.18;;;;;;;;;;5102765;27;20211;-76
2023/10/06 09:10:41;;;;;;;10.10;7.15;;;;;;;;;;5102999;28;20615;-76
2023/10/06 09:13:11;;;;;;;10.18;5.88;;;;;;;;;;5104991;27;20691;-77
2023/10/06 09:15:40;;;;;;;8.23;5.53;;;;;;;;;;5100851;28;20216;-75
2023/10/06 09:18:39;;;;;;;11.20;6.25;;;;;;;;;;5098247;28;20227;-75
2023/10/06 09:21:10;;;;;;;10.98;6.07;;;;;;;;;;5089501;28;20659;-75
2023/10/06 09:23:40;;;;;;;12.55;6.35;;;;;;;;;;5100646;27;20581;-77
2023/10/06 09:26:08;;;;;;;7.35;5.45;;;;;;;;;;5066959;28;20243;-75
2023/10/06 09:28:48;;;;;;;7.75;5.55;;;;;;;;;;5096700;28;20203;-76
2023/10/06 09:31:16;;;;;;;9.57;5.70;;;;;;;;;;5098515;28;20207;-76
2023/10/06 09:33:49;;;;;;;9.57;5.68;;;;;;;;;;5098717;28;20266;-75
2023/10/06 09:36:17;;;;;;;7.80;5.60;;;;;;;;;;5103371;28;20588;-75
2023/10/06 09:39:13;;;;;;;11.10;5.97;;;;;;;;;;5093449;28;20236;-76
2023/10/06 09:41:41;;;;;;;6.43;4.93;;;;;;;;;;5098345;28;20204;-77
2023/10/06 09:44:11;;;;;;;9.13;5.30;;;;;;;;;;5103938;28;20948;-76
2023/10/06 09:46:43;;;;;;;8.80;5.35;;;;;;;;;;5099015;28;20228;-76
2023/10/06 09:49:16;;;;;;;8.20;4.90;;;;;;;;;;5100028;28;20291;-75
2023/10/06 09:52:03;;;;;;;6.78;4.68;;;;;;;;;;5073024;28;20200;-75
2023/10/06 09:54:31;;;;;;;7.38;4.30;;;;;;;;;;5099922;28;20204;-78
2023/10/06 09:56:59;;;;;;;6.93;4.28;;;;;;;;;;5103211;28;20659;-76
2023/10/06 09:59:27;;;;;;;6.28;4.68;;;;;;;;;;5094745;28;20201;-76
2023/10/06 10:01:56;;;;;;;11.90;5.30;;;;;;;;;;5092315;28;20740;-77
2023/10/06 10:04:29;;;;;;;7.13;4.22;;;;;;;;;;5071764;28;20321;-76
2023/10/06 10:06:57;;;;;;;8.75;4.68;;;;;;;;;;5092940;28;20256;-76
2023/10/06 10:09:28;;;;;;;6.88;4.07;;;;;;;;;;5096469;28;20249;-76
2023/10/06 10:12:08;;;;;;;5.47;3.90;;;;;;;;;;5079568;28;20867;-78
2023/10/06 10:14:36;;;;;;;7.07;4.22;;;;;;;;;;5095253;28;20334;-77
2023/10/06 10:17:07;;;;;;;7.60;4.20;;;;;;;;;;5095192;28;20227;-76
2023/10/06 10:19:36;;;;;;;8.68;4.03;;;;;;;;;;5081922;28;20204;-77
2023/10/06 10:22:03;;;;;;;7.50;4.97;;;;;;;;;;5075086;28;20215;-76
2023/10/06 10:24:34;;;;;;;7.65;4.03;;;;;;;;;;5095121;28;20770;-76
2023/10/06 10:27:12;;;;;;;6.28;4.03;;;;;;;;;;5081723;28;20543;-75
2023/10/06 10:29:41;;;;;;;6.20;3.70;;;;;;;;;;5089909;28;20200;-73
2023/10/06 10:32:12;;;;;;;6.07;4.18;;;;;;;;;;5094713;28;20212;-75
2023/10/06 10:34:58;;;;;;;8.02;4.30;;;;;;;;;;5093908;28;20579;-77
2023/10/06 10:37:26;;;;;;;6.90;4.00;;;;;;;;;;5090466;28;20745;-76
2023/10/06 10:39:55;;;;;;;5.65;3.53;;;;;;;;;;5099792;28;20295;-77
2023/10/06 10:42:36;;;;;;;6.40;3.90;;;;;;;;;;5098015;28;20211;-79
2023/10/06 10:45:23;;;;;;;5.63;3.50;;;;;;;;;;5072071;28;20239;-77
2023/10/06 10:47:51;;;;;;;4.88;3.45;;;;;;;;;;5090167;28;20232;-77
2023/10/06 10:50:20;;;;;;;5.55;3.53;;;;;;;;;;5079590;28;20287;-76
2023/10/06 10:52:48;;;;;;;7.30;3.75;;;;;;;;;;5095279;28;20627;-77
2023/10/06 10:55:23;;;;;;;4.97;3.55;;;;;;;;;;5095451;28;20197;-76
2023/10/06 10:57:51;;;;;;;6.63;3.85;;;;;;;;;;5091422;28;20220;-78
2023/10/06 11:00:20;;;;;;;6.55;3.83;;;;;;;;;;5094560;28;20211;-76
2023/10/06 11:02:51;;;;;;;5.57;3.72;;;;;;;;;;5077702;28;20651;-76
2023/10/06 11:05:22;;;;;;;7.05;3.80;;;;;;;;;;5069766;28;20225;-79
2023/10/06 11:08:02;;;;;;;6.10;4.15;;;;;;;;;;5093443;28;20196;-77
2023/10/06 11:10:32;;;;;;;5.47;4.18;;;;;;;;;;5072471;28;20201;-76
2023/10/06 11:13:18;;;;;;;5.93;3.60;;;;;;;;;;5090646;28;20586;-78
2023/10/06 11:15:46;;;;;;;5.28;3.60;;;;;;;;;;5090052;28;20234;-77
2023/10/06 11:18:17;;;;;;;4.97;3.25;;;;;;;;;;5091866;28;20249;-76
2023/10/06 11:20:48;;;;;;;5.07;3.70;;;;;;;;;;5095535;28;20283;-78
2023/10/06 11:23:15;;;;;;;6.55;3.63;;;;;;;;;;5096457;28;20631;-76
2023/10/06 11:25:50;;;;;;;5.65;3.50;;;;;;;;;;5096839;28;20245;-76
2023/10/06 11:28:19;;;;;;;5.90;3.67;;;;;;;;;;5099854;27;20202;-78
2023/10/06 11:30:47;;;;;;;4.30;3.15;;;;;;;;;;5097383;28;20203;-79
2023/10/06 11:33:19;;;;;;;5.85;3.78;;;;;;;;;;5076644;28;20622;-75
2023/10/06 11:35:48;;;;;;;4.65;3.22;;;;;;;;;;5078684;28;20216;-77
2023/10/06 11:38:15;;;;;;;7.43;3.28;;;;;;;;;;5106108;27;20207;-76
2023/10/06 11:40:44;;;;;;;4.63;3.38;;;;;;;;;;5098658;28;20269;-78
2023/10/06 11:43:12;;;;;;;6.32;3.47;;;;;;;;;;5103255;28;20231;-79
2023/10/06 11:45:44;;;;;;;7.65;3.10;;;;;;;;;;5101805;28;20256;-75
2023/10/06 11:48:33;;;;;;;6.32;3.50;;;;;;;;;;5110994;28;20200;-78
2023/10/06 11:51:06;;;;;;;5.70;3.33;;;;;;;;;;5102766;28;20200;-75
2023/10/06 11:53:39;;;;;;;5.53;3.35;;;;;;;;;;5092876;28;20729;-75
2023/10/06 11:56:09;;;;;;;6.90;3.33;;;;;;;;;;5082597;28;20252;-76
2023/10/06 11:58:41;;;;;;;4.28;3.17;;;;;;;;;;5099639;28;20734;-79
2023/10/06 12:01:36;;;;;;;5.75;3.42;;;;;;;;;;5096608;28;20204;-77
2023/10/06 12:04:08;;;;;;;3.40;3.00;;;;;;;;;;5085588;28;20215;-77
2023/10/06 12:06:39;;;;;;;5.93;3.55;;;;;;;;;;5091284;28;20224;-77
2023/10/06 12:09:08;;;;;;;4.28;3.22;;;;;;;;;;5081796;28;20293;-77
2023/10/06 12:11:36;;;;;;;4.80;3.35;;;;;;;;;;5094901;27;20553;-78
2023/10/06 12:14:04;;;;;;;4.68;3.72;;;;;;;;;;5092807;28;20204;-78
2023/10/06 12:16:31;;;;;;;6.75;3.20;;;;;;;;;;5078964;28;20219;-78
2023/10/06 12:18:59;;;;;;;6.28;3.17;;;;;;;;;;5103509;28;20582;-78
2023/10/06 12:21:27;;;;;;;4.18;3.13;;;;;;;;;;5069238;28;21510;-78
2023/10/06 12:23:55;;;;;;;5.03;3.13;;;;;;;;;;5092158;28;20645;-75
2023/10/06 12:26:24;;;;;;;5.45;3.80;;;;;;;;;;5100868;27;20350;-77
2023/10/06 12:28:53;;;;;;;4.55;3.50;;;;;;;;;;5104114;27;20289;-78
2023/10/06 12:31:22;;;;;;;5.15;3.28;;;;;;;;;;5106285;27;20244;-77
2023/10/06 12:33:55;;;;;;;6.95;3.20;;;;;;;;;;5093104;28;20349;-78
2023/10/06 12:36:26;;;;;;;9.13;6.60;;;;;;;;;;5108078;28;20307;-81
2023/10/06 12:38:53;;;;;;;4.28;3.30;;;;;;;;;;5104008;28;20200;-83
2023/10/06 12:41:21;;;;;;;6.68;3.60;;;;;;;;;;5084754;28;20212;-78
2023/10/06 12:43:49;;;;;;;5.28;3.35;;;;;;;;;;5110183;27;20652;-82
2023/10/06 12:46:18;;;;;;;5.00;2.80;;;;;;;;;;5084375;28;20219;-76
2023/10/06 12:48:47;;;;;;;3.92;2.95;;;;;;;;;;5065174;28;20236;-78
2023/10/06 12:51:15;;;;;;;3.58;2.67;;;;;;;;;;5094776;28;20204;-78
2023/10/06 12:53:43;;;;;;;6.15;4.22;;;;;;;;;;5070016;28;20201;-77
2023/10/06 12:56:11;;;;;;;6.30;3.72;;;;;;;;;;5089455;28;20225;-78
2023/10/06 12:58:39;;;;;;;4.35;3.28;;;;;;;;;;5094229;27;20211;-78
2023/10/06 13:01:07;;;;;;;3.88;3.00;;;;;;;;;;5096504;27;20622;-78
2023/10/06 13:03:36;;;;;;;4.32;2.90;;;;;;;;;;5084069;28;21439;-78
2023/10/06 13:06:04;;;;;;;3.35;3.03;;;;;;;;;;5063105;28;20723;-79
2023/10/06 13:08:33;;;;;;;6.05;3.35;;;;;;;;;;5068495;28;20576;-76
2023/10/06 13:11:03;;;;;;;4.05;2.83;;;;;;;;;;5090478;28;20618;-81
2023/10/06 13:13:33;;;;;;;3.78;2.90;;;;;;;;;;5090471;28;20212;-78
2023/10/06 13:16:01;;;;;;;4.95;3.30;;;;;;;;;;5096391;27;20506;-80
2023/10/06 13:18:30;;;;;;;4.50;3.50;;;;;;;;;;5100135;28;20234;-80
2023/10/06 13:24:13;;;;;;;5.00;3.60;;;;;;;;;;5102449;28;20211;-81
2023/10/06 13:26:43;;;;;;;4.68;3.30;;;;;;;;;;5103132;28;20229;-81
2023/10/06 13:29:11;;;;;;;4.13;3.15;;;;;;;;;;5113204;27;20288;-79
2023/10/06 13:31:39;;;;;;;5.38;2.90;;;;;;;;;;5108644;28;20196;-79
2023/10/06 13:34:07;;;;;;;3.15;2.80;;;;;;;;;;5104646;27;20196;-77
2023/10/06 13:36:35;;;;;;;3.88;2.72;;;;;;;;;;5104424;28;20220;-77
2023/10/06 13:39:09;;;;;;;5.88;3.17;;;;;;;;;;5102507;28;20594;-80
2023/10/06 13:41:42;;;;;;;5.05;3.20;;;;;;;;;;5108093;28;20215;-79
2023/10/06 13:44:10;;;;;;;4.32;3.30;;;;;;;;;;5080730;28;20201;-80
2023/10/06 13:46:40;;;;;;;3.45;2.80;;;;;;;;;;5102641;27;20228;-77
2023/10/06 13:52:36;;;;;;;4.05;2.95;;;;;;;;;;5103235;28;20677;-80
2023/10/06 13:55:04;;;;;;;3.97;2.78;;;;;;;;;;5086661;28;20208;-77
2023/10/06 13:57:32;;;;;;;5.45;3.58;;;;;;;;;;5105298;28;20228;-78
2023/10/06 13:59:59;;;;;;;3.60;2.80;;;;;;;;;;5110726;27;20211;-75
2023/10/06 14:02:28;;;;;;;4.40;3.17;;;;;;;;;;5100656;28;20208;-77
2023/10/06 14:04:55;;;;;;;4.85;3.40;;;;;;;;;;5105195;28;20307;-75
2023/10/06 14:14:35;;;;;;;4.68;3.05;;;;;;;;;;5105508;28;20255;-76
2023/10/06 14:16:57;;;;;;;6.35;3.72;;;;;;;;;;5101613;28;20719;-77
2023/10/06 14:19:24;;;;;;;5.65;3.28;;;;;;;;;;5111592;28;20228;-76
2023/10/06 14:21:51;;;;;;;4.93;3.10;;;;;;;;;;5108955;28;20211;-76
2023/10/06 14:24:19;;;;;;;5.63;3.30;;;;;;;;;;5102110;28;20253;-76
2023/10/06 14:30:09;;;;;;;6.65;3.10;;;;;;;;;;5107046;28;20284;-76
2023/10/06 14:32:42;;;;;;;4.70;3.42;;;;;;;;;;5100270;28;20212;-77
2023/10/06 14:53:31;;;;;;;5.70;3.13;;;;;;;;;;5107987;28;20237;-76
2023/10/06 14:56:00;;;;;;;4.88;3.42;;;;;;;;;;5108606;27;20252;-77
2023/10/06 14:58:27;;;;;;;7.57;4.00;;;;;;;;;;5112688;27;20212;-77
2023/10/06 15:01:01;;;;;;;6.60;3.90;;;;;;;;;;5107592;27;20205;-77
2023/10/06 15:03:29;;;;;;;5.30;3.38;;;;;;;;;;5103295;27;20212;-79
2023/10/06 15:05:59;;;;;;;10.32;7.15;;;;;;;;;;5108788;28;20870;-76
2023/10/06 15:08:28;;;;;;;7.18;4.55;;;;;;;;;;5106132;28;20661;-78
2023/10/06 19:20:25;;;;;;;14.93;6.37;;;;;;;;;;5092734;28;20248;-75
2023/10/06 19:22:58;;;;;;;9.20;5.50;;;;;;;;;;5092863;28;20208;-79
2023/10/06 19:25:28;;;;;;;8.03;5.50;;;;;;;;;;5082020;28;20282;-77
2023/10/06 19:27:55;;;;;;;9.27;5.60;;;;;;;;;;5077840;28;20201;-77
2023/10/06 19:30:22;;;;;;;8.47;5.77;;;;;;;;;;5105340;27;20318;-74
2023/10/06 19:32:50;;;;;;;12.57;5.43;;;;;;;;;;5104792;28;20246;-77
2023/10/06 19:35:17;;;;;;;8.60;5.23;;;;;;;;;;5095951;28;20295;-75
2023/10/06 19:37:45;;;;;;;8.23;5.10;;;;;;;;;;5095973;27;20728;-75